PAL42C RPME-RPLL
Flight info
| Callsign | PAL42C |
|---|---|
| Flight time | 1h 12m |
| Altitude | 36000 |
| Route | BAMP1B JARED W14 MCT W11 CONDE CONDE5R |
| Aircraft | A320/M-SDE3FGHIRWY/LB1 |
Departure
| Time | 2026-04-30 10:02 |
|---|---|
| Airport | Bancasi Airport (RPME) |
Arrival
| Time | 2026-04-30 11:14 |
|---|---|
| Airport | Ninoy Aquino International Airport (RPLL) |
| Time | Latitude | Longitude | Altitude | Speed | Heading |
|---|---|---|---|---|---|
| 2026-04-30 09:44 | 8.94867 | 125.48148 | 41 ft | 0 kts | 238° |
| 2026-04-30 09:53 | 8.94869 | 125.48151 | 41 ft | 3 kts | 238° |
| 2026-04-30 09:53 | 8.94879 | 125.48167 | 40 ft | 3 kts | 238° |
| 2026-04-30 09:54 | 8.94884 | 125.48184 | 41 ft | 2 kts | 298° |
| 2026-04-30 09:54 | 8.94883 | 125.48185 | 41 ft | 0 kts | 298° |
| 2026-04-30 09:57 | 8.94884 | 125.48184 | 41 ft | 0 kts | 298° |
| 2026-04-30 09:57 | 8.94890 | 125.48182 | 38 ft | 2 kts | 333° |
| 2026-04-30 09:57 | 8.94909 | 125.48171 | 41 ft | 4 kts | 327° |
| 2026-04-30 09:58 | 8.94931 | 125.48144 | 38 ft | 5 kts | 302° |
| 2026-04-30 09:58 | 8.94954 | 125.48114 | 39 ft | 6 kts | 321° |
| 2026-04-30 09:58 | 8.94994 | 125.48096 | 40 ft | 7 kts | 343° |
| 2026-04-30 09:58 | 8.95031 | 125.48118 | 39 ft | 7 kts | 72° |
| 2026-04-30 09:59 | 8.94981 | 125.48230 | 39 ft | 11 kts | 118° |
| 2026-04-30 09:59 | 8.94896 | 125.48398 | 38 ft | 17 kts | 116° |
| 2026-04-30 10:00 | 8.94812 | 125.48616 | 42 ft | 13 kts | 116° |
| 2026-04-30 10:00 | 8.94793 | 125.48613 | 42 ft | 1 kts | 270° |
| 2026-04-30 10:01 | 8.94851 | 125.48488 | 39 ft | 45 kts | 296° |
| 2026-04-30 10:01 | 8.95070 | 125.48043 | 40 ft | 95 kts | 296° |
| 2026-04-30 10:01 | 8.95433 | 125.47292 | 45 ft | 141 kts | 296° |
| 2026-04-30 10:02 | 8.96577 | 125.45697 | 853 ft | 147 kts | 315° |
| 2026-04-30 10:02 | 8.97324 | 125.44931 | 1134 ft | 167 kts | 316° |
| 2026-04-30 10:02 | 8.98219 | 125.44021 | 1271 ft | 198 kts | 316° |
| 2026-04-30 10:02 | 8.99255 | 125.42958 | 1484 ft | 223 kts | 315° |
| 2026-04-30 10:03 | 9.00418 | 125.41752 | 1745 ft | 256 kts | 315° |
| 2026-04-30 10:03 | 9.01693 | 125.40422 | 2538 ft | 268 kts | 315° |
| 2026-04-30 10:03 | 9.02995 | 125.39049 | 3564 ft | 272 kts | 315° |
| 2026-04-30 10:03 | 9.04316 | 125.37648 | 4545 ft | 278 kts | 315° |
| 2026-04-30 10:04 | 9.05666 | 125.36217 | 5485 ft | 284 kts | 315° |
| 2026-04-30 10:04 | 9.07037 | 125.34759 | 6420 ft | 288 kts | 315° |
| 2026-04-30 10:04 | 9.08431 | 125.33277 | 7282 ft | 293 kts | 315° |
| 2026-04-30 10:04 | 9.09846 | 125.31776 | 8143 ft | 297 kts | 316° |
| 2026-04-30 10:05 | 9.11281 | 125.30252 | 8993 ft | 301 kts | 316° |
| 2026-04-30 10:05 | 9.12737 | 125.28703 | 9823 ft | 306 kts | 316° |
| 2026-04-30 10:05 | 9.14236 | 125.27110 | 10258 ft | 325 kts | 316° |
| 2026-04-30 10:05 | 9.15865 | 125.25384 | 10391 ft | 353 kts | 316° |
| 2026-04-30 10:06 | 9.17619 | 125.23524 | 10669 ft | 374 kts | 315° |
| 2026-04-30 10:06 | 9.19434 | 125.21592 | 11312 ft | 381 kts | 315° |
| 2026-04-30 10:06 | 9.21269 | 125.19633 | 12060 ft | 386 kts | 315° |
| 2026-04-30 10:06 | 9.23125 | 125.17653 | 12808 ft | 390 kts | 315° |
| 2026-04-30 10:07 | 9.25001 | 125.15652 | 13538 ft | 394 kts | 315° |
| 2026-04-30 10:07 | 9.26899 | 125.13630 | 14196 ft | 398 kts | 315° |
| 2026-04-30 10:07 | 9.28818 | 125.11588 | 14846 ft | 402 kts | 315° |
| 2026-04-30 10:07 | 9.30752 | 125.09530 | 15507 ft | 405 kts | 315° |
| 2026-04-30 10:08 | 9.32698 | 125.07456 | 16158 ft | 408 kts | 315° |
| 2026-04-30 10:08 | 9.34660 | 125.05365 | 16812 ft | 411 kts | 315° |
| 2026-04-30 10:08 | 9.36643 | 125.03255 | 17452 ft | 415 kts | 315° |
| 2026-04-30 10:08 | 9.38642 | 125.01129 | 18085 ft | 419 kts | 315° |
| 2026-04-30 10:09 | 9.40658 | 124.98983 | 18640 ft | 422 kts | 315° |
| 2026-04-30 10:09 | 9.42690 | 124.96818 | 19187 ft | 426 kts | 315° |
| 2026-04-30 10:09 | 9.44736 | 124.94636 | 19724 ft | 429 kts | 315° |
| 2026-04-30 10:09 | 9.46795 | 124.92432 | 20239 ft | 433 kts | 314° |
| 2026-04-30 10:10 | 9.48851 | 124.90189 | 20735 ft | 437 kts | 314° |
| 2026-04-30 10:10 | 9.50914 | 124.87909 | 21212 ft | 441 kts | 314° |
| 2026-04-30 10:10 | 9.52983 | 124.85602 | 21693 ft | 444 kts | 314° |
| 2026-04-30 10:10 | 9.55068 | 124.83278 | 22173 ft | 447 kts | 314° |
| 2026-04-30 10:11 | 9.57173 | 124.80938 | 22655 ft | 451 kts | 314° |
| 2026-04-30 10:11 | 9.59294 | 124.78585 | 23125 ft | 454 kts | 314° |
| 2026-04-30 10:11 | 9.61435 | 124.76218 | 23558 ft | 457 kts | 314° |
| 2026-04-30 10:11 | 9.63594 | 124.73833 | 23945 ft | 460 kts | 314° |
| 2026-04-30 10:12 | 9.65735 | 124.71470 | 24335 ft | 462 kts | 314° |
| 2026-04-30 10:12 | 9.67914 | 124.69064 | 24723 ft | 464 kts | 314° |
| 2026-04-30 10:12 | 9.70103 | 124.66647 | 25092 ft | 467 kts | 314° |
| 2026-04-30 10:12 | 9.72302 | 124.64215 | 25447 ft | 469 kts | 314° |
| 2026-04-30 10:13 | 9.74507 | 124.61772 | 25785 ft | 471 kts | 314° |
| 2026-04-30 10:13 | 9.76721 | 124.59320 | 26098 ft | 473 kts | 314° |
| 2026-04-30 10:13 | 9.78948 | 124.56862 | 26386 ft | 474 kts | 314° |
| 2026-04-30 10:13 | 9.81188 | 124.54394 | 26656 ft | 476 kts | 314° |
| 2026-04-30 10:14 | 9.83434 | 124.51921 | 26895 ft | 478 kts | 314° |
| 2026-04-30 10:14 | 9.85685 | 124.49437 | 27118 ft | 479 kts | 314° |
| 2026-04-30 10:14 | 9.90198 | 124.44437 | 27486 ft | 482 kts | 314° |
| 2026-04-30 10:15 | 9.92471 | 124.41924 | 27648 ft | 484 kts | 314° |
| 2026-04-30 10:15 | 9.94747 | 124.39408 | 27806 ft | 485 kts | 314° |
| 2026-04-30 10:15 | 9.97026 | 124.36886 | 27950 ft | 486 kts | 314° |
| 2026-04-30 10:15 | 9.99312 | 124.34355 | 28074 ft | 487 kts | 314° |
| 2026-04-30 10:16 | 10.01603 | 124.31822 | 28224 ft | 488 kts | 314° |
| 2026-04-30 10:16 | 10.03895 | 124.29285 | 28419 ft | 488 kts | 314° |
| 2026-04-30 10:16 | 10.06185 | 124.26748 | 28644 ft | 487 kts | 314° |
| 2026-04-30 10:17 | 10.09989 | 124.22535 | 29055 ft | 487 kts | 314° |
| 2026-04-30 10:17 | 10.14565 | 124.17472 | 29557 ft | 487 kts | 314° |
| 2026-04-30 10:17 | 10.16853 | 124.14937 | 29845 ft | 487 kts | 314° |
| 2026-04-30 10:18 | 10.19136 | 124.12404 | 30126 ft | 486 kts | 314° |
| 2026-04-30 10:18 | 10.21418 | 124.09871 | 30422 ft | 485 kts | 313° |
| 2026-04-30 10:18 | 10.23693 | 124.07347 | 30729 ft | 484 kts | 313° |
| 2026-04-30 10:19 | 10.28222 | 124.02321 | 31386 ft | 481 kts | 313° |
| 2026-04-30 10:19 | 10.30504 | 123.99844 | 31723 ft | 479 kts | 317° |
| 2026-04-30 10:19 | 10.33035 | 123.97670 | 31989 ft | 473 kts | 326° |
| 2026-04-30 10:19 | 10.35742 | 123.95775 | 32197 ft | 474 kts | 327° |
| 2026-04-30 10:20 | 10.38468 | 123.93884 | 32416 ft | 476 kts | 326° |
| 2026-04-30 10:20 | 10.43943 | 123.90095 | 32986 ft | 476 kts | 326° |
| 2026-04-30 10:20 | 10.46679 | 123.88198 | 33303 ft | 476 kts | 326° |
| 2026-04-30 10:21 | 10.49411 | 123.86302 | 33631 ft | 476 kts | 326° |
| 2026-04-30 10:21 | 10.52142 | 123.84405 | 33948 ft | 475 kts | 326° |
| 2026-04-30 10:21 | 10.54869 | 123.82506 | 34240 ft | 475 kts | 326° |
| 2026-04-30 10:21 | 10.57597 | 123.80606 | 34524 ft | 475 kts | 326° |
| 2026-04-30 10:22 | 10.60319 | 123.78710 | 34806 ft | 474 kts | 326° |
| 2026-04-30 10:22 | 10.63039 | 123.76814 | 35072 ft | 474 kts | 326° |
| 2026-04-30 10:22 | 10.65759 | 123.74917 | 35330 ft | 474 kts | 326° |
| 2026-04-30 10:22 | 10.68476 | 123.73025 | 35579 ft | 473 kts | 326° |
| 2026-04-30 10:23 | 10.71189 | 123.71138 | 35823 ft | 473 kts | 326° |
| 2026-04-30 10:23 | 10.73906 | 123.69249 | 35911 ft | 473 kts | 326° |
| 2026-04-30 10:23 | 10.79323 | 123.65479 | 35911 ft | 472 kts | 326° |
| 2026-04-30 10:24 | 10.84742 | 123.61701 | 35907 ft | 472 kts | 326° |
| 2026-04-30 10:24 | 10.90162 | 123.57922 | 35908 ft | 472 kts | 326° |
| 2026-04-30 10:25 | 10.95581 | 123.54144 | 35905 ft | 472 kts | 326° |
| 2026-04-30 10:25 | 11.01000 | 123.50359 | 35904 ft | 472 kts | 326° |
| 2026-04-30 10:26 | 11.06416 | 123.46582 | 35906 ft | 472 kts | 326° |
| 2026-04-30 10:26 | 11.11832 | 123.42803 | 35907 ft | 472 kts | 326° |
| 2026-04-30 10:27 | 11.17245 | 123.39021 | 35906 ft | 472 kts | 326° |
| 2026-04-30 10:27 | 11.22659 | 123.35238 | 35909 ft | 472 kts | 326° |
| 2026-04-30 10:28 | 11.28072 | 123.31452 | 35909 ft | 472 kts | 326° |
| 2026-04-30 10:28 | 11.33481 | 123.27665 | 35909 ft | 472 kts | 326° |
| 2026-04-30 10:29 | 11.38896 | 123.23877 | 35912 ft | 473 kts | 325° |
| 2026-04-30 10:29 | 11.44315 | 123.20084 | 35913 ft | 473 kts | 325° |
| 2026-04-30 10:30 | 11.49736 | 123.16288 | 35916 ft | 473 kts | 325° |
| 2026-04-30 10:30 | 11.55157 | 123.12487 | 35916 ft | 473 kts | 325° |
| 2026-04-30 10:31 | 11.60575 | 123.08688 | 35916 ft | 473 kts | 325° |
| 2026-04-30 10:31 | 11.65989 | 123.04881 | 35920 ft | 473 kts | 325° |
| 2026-04-30 10:32 | 11.71400 | 123.01082 | 35916 ft | 471 kts | 324° |
| 2026-04-30 10:32 | 11.76793 | 122.97291 | 35918 ft | 471 kts | 324° |
| 2026-04-30 10:33 | 11.82187 | 122.93504 | 35920 ft | 471 kts | 324° |
| 2026-04-30 10:33 | 11.87582 | 122.89713 | 35919 ft | 471 kts | 324° |
| 2026-04-30 10:34 | 11.92964 | 122.85922 | 35919 ft | 469 kts | 324° |
| 2026-04-30 10:34 | 11.98330 | 122.82142 | 35919 ft | 469 kts | 324° |
| 2026-04-30 10:35 | 12.03701 | 122.78363 | 35924 ft | 469 kts | 324° |
| 2026-04-30 10:35 | 12.09066 | 122.74587 | 35926 ft | 468 kts | 324° |
| 2026-04-30 10:36 | 12.14426 | 122.70810 | 35927 ft | 468 kts | 324° |
| 2026-04-30 10:36 | 12.19785 | 122.67026 | 35927 ft | 468 kts | 324° |
| 2026-04-30 10:37 | 12.25141 | 122.63241 | 35928 ft | 468 kts | 324° |
| 2026-04-30 10:37 | 12.30498 | 122.59465 | 35929 ft | 466 kts | 324° |
| 2026-04-30 10:38 | 12.35837 | 122.55699 | 35928 ft | 466 kts | 324° |
| 2026-04-30 10:38 | 12.41119 | 122.51967 | 35930 ft | 463 kts | 324° |
| 2026-04-30 10:39 | 12.46457 | 122.48185 | 35925 ft | 464 kts | 324° |
| 2026-04-30 10:39 | 12.51727 | 122.44455 | 35926 ft | 464 kts | 324° |
| 2026-04-30 10:40 | 12.57032 | 122.40701 | 35929 ft | 464 kts | 324° |
| 2026-04-30 10:40 | 12.62340 | 122.36947 | 35928 ft | 464 kts | 324° |
| 2026-04-30 10:41 | 12.67646 | 122.33193 | 35929 ft | 464 kts | 324° |
| 2026-04-30 10:41 | 12.72943 | 122.29432 | 35924 ft | 460 kts | 324° |
| 2026-04-30 10:42 | 12.78130 | 122.25750 | 35938 ft | 452 kts | 324° |
| 2026-04-30 10:42 | 12.83306 | 122.22078 | 35929 ft | 452 kts | 324° |
| 2026-04-30 10:43 | 12.88481 | 122.18408 | 35922 ft | 452 kts | 324° |
| 2026-04-30 10:43 | 12.93662 | 122.14728 | 35197 ft | 456 kts | 324° |
| 2026-04-30 10:44 | 12.96272 | 122.12875 | 34763 ft | 459 kts | 324° |
| 2026-04-30 10:44 | 12.98897 | 122.11012 | 34369 ft | 455 kts | 324° |
| 2026-04-30 10:44 | 13.01475 | 122.09180 | 33986 ft | 447 kts | 324° |
| 2026-04-30 10:44 | 13.04009 | 122.07379 | 33554 ft | 440 kts | 324° |
| 2026-04-30 10:45 | 13.06506 | 122.05603 | 33125 ft | 435 kts | 324° |
| 2026-04-30 10:45 | 13.08985 | 122.03839 | 32704 ft | 433 kts | 324° |
| 2026-04-30 10:45 | 13.11451 | 122.02082 | 32295 ft | 430 kts | 324° |
| 2026-04-30 10:45 | 13.13892 | 122.00342 | 31884 ft | 425 kts | 324° |
| 2026-04-30 10:46 | 13.16309 | 121.98620 | 31475 ft | 421 kts | 324° |
| 2026-04-30 10:46 | 13.18710 | 121.96911 | 31080 ft | 418 kts | 324° |
| 2026-04-30 10:46 | 13.21093 | 121.95217 | 30689 ft | 415 kts | 324° |
| 2026-04-30 10:46 | 13.23454 | 121.93537 | 30285 ft | 411 kts | 324° |
| 2026-04-30 10:47 | 13.25795 | 121.91869 | 29908 ft | 408 kts | 324° |
| 2026-04-30 10:47 | 13.28122 | 121.90210 | 29456 ft | 406 kts | 324° |
| 2026-04-30 10:47 | 13.30431 | 121.88563 | 29011 ft | 403 kts | 324° |
| 2026-04-30 10:47 | 13.32726 | 121.86923 | 28543 ft | 400 kts | 324° |
| 2026-04-30 10:48 | 13.34999 | 121.85298 | 28033 ft | 397 kts | 324° |
| 2026-04-30 10:48 | 13.37257 | 121.83685 | 27534 ft | 394 kts | 324° |
| 2026-04-30 10:48 | 13.39503 | 121.82081 | 27029 ft | 392 kts | 324° |
| 2026-04-30 10:48 | 13.41736 | 121.80488 | 26529 ft | 390 kts | 324° |
| 2026-04-30 10:49 | 13.43963 | 121.78903 | 26050 ft | 388 kts | 324° |
| 2026-04-30 10:49 | 13.46177 | 121.77329 | 25603 ft | 385 kts | 324° |
| 2026-04-30 10:49 | 13.48367 | 121.75766 | 25200 ft | 381 kts | 325° |
| 2026-04-30 10:49 | 13.50533 | 121.74218 | 24787 ft | 378 kts | 325° |
| 2026-04-30 10:50 | 13.52682 | 121.72679 | 24365 ft | 375 kts | 325° |
| 2026-04-30 10:50 | 13.54818 | 121.71149 | 23934 ft | 373 kts | 325° |
| 2026-04-30 10:50 | 13.56946 | 121.69628 | 23504 ft | 372 kts | 325° |
| 2026-04-30 10:50 | 13.59064 | 121.68115 | 23027 ft | 369 kts | 325° |
| 2026-04-30 10:51 | 13.61164 | 121.66615 | 22562 ft | 366 kts | 326° |
| 2026-04-30 10:51 | 13.63253 | 121.65121 | 22051 ft | 366 kts | 326° |
| 2026-04-30 10:51 | 13.65334 | 121.63631 | 21583 ft | 364 kts | 326° |
| 2026-04-30 10:51 | 13.67401 | 121.62151 | 21170 ft | 360 kts | 326° |
| 2026-04-30 10:52 | 13.69379 | 121.60583 | 20753 ft | 358 kts | 319° |
| 2026-04-30 10:52 | 13.71232 | 121.58886 | 20322 ft | 356 kts | 319° |
| 2026-04-30 10:52 | 13.73072 | 121.57199 | 19906 ft | 354 kts | 319° |
| 2026-04-30 10:52 | 13.74907 | 121.55518 | 19455 ft | 353 kts | 319° |
| 2026-04-30 10:53 | 13.76748 | 121.53836 | 18982 ft | 354 kts | 320° |
| 2026-04-30 10:53 | 13.78587 | 121.52153 | 18577 ft | 353 kts | 319° |
| 2026-04-30 10:53 | 13.80415 | 121.50478 | 18191 ft | 351 kts | 319° |
| 2026-04-30 10:53 | 13.82235 | 121.48815 | 17757 ft | 349 kts | 319° |
| 2026-04-30 10:54 | 13.84043 | 121.47164 | 17340 ft | 346 kts | 319° |
| 2026-04-30 10:54 | 13.85834 | 121.45522 | 16934 ft | 344 kts | 319° |
| 2026-04-30 10:54 | 13.87612 | 121.43891 | 16525 ft | 341 kts | 319° |
| 2026-04-30 10:54 | 13.89378 | 121.42271 | 16140 ft | 339 kts | 319° |
| 2026-04-30 10:55 | 13.91130 | 121.40664 | 15765 ft | 336 kts | 319° |
| 2026-04-30 10:55 | 13.92866 | 121.39071 | 15400 ft | 333 kts | 319° |
| 2026-04-30 10:55 | 13.94570 | 121.37508 | 15261 ft | 323 kts | 319° |
| 2026-04-30 10:55 | 13.96226 | 121.35989 | 15080 ft | 315 kts | 320° |
| 2026-04-30 10:56 | 13.97845 | 121.34502 | 14888 ft | 309 kts | 320° |
| 2026-04-30 10:56 | 13.99438 | 121.33040 | 14712 ft | 306 kts | 320° |
| 2026-04-30 10:56 | 14.01032 | 121.31582 | 14529 ft | 306 kts | 320° |
| 2026-04-30 10:56 | 14.02623 | 121.30130 | 14347 ft | 305 kts | 320° |
| 2026-04-30 10:57 | 14.04116 | 121.28582 | 14169 ft | 306 kts | 309° |
| 2026-04-30 10:57 | 14.05239 | 121.26724 | 13993 ft | 306 kts | 295° |
| 2026-04-30 10:57 | 14.06020 | 121.24694 | 13812 ft | 304 kts | 291° |
| 2026-04-30 10:57 | 14.06775 | 121.22668 | 13616 ft | 304 kts | 291° |
| 2026-04-30 10:58 | 14.07535 | 121.20638 | 13417 ft | 302 kts | 292° |
| 2026-04-30 10:58 | 14.08291 | 121.18627 | 13210 ft | 302 kts | 291° |
| 2026-04-30 10:58 | 14.09047 | 121.16610 | 12992 ft | 301 kts | 292° |
| 2026-04-30 10:58 | 14.09797 | 121.14606 | 12793 ft | 300 kts | 292° |
| 2026-04-30 10:59 | 14.10551 | 121.12587 | 12596 ft | 301 kts | 291° |
| 2026-04-30 10:59 | 14.11294 | 121.10591 | 12402 ft | 296 kts | 291° |
| 2026-04-30 10:59 | 14.11781 | 121.09283 | 12267 ft | 297 kts | 292° |
| 2026-04-30 10:59 | 14.12531 | 121.07270 | 12067 ft | 303 kts | 292° |
| 2026-04-30 11:00 | 14.13284 | 121.05254 | 11876 ft | 299 kts | 291° |
| 2026-04-30 11:00 | 14.14024 | 121.03266 | 11683 ft | 297 kts | 291° |
| 2026-04-30 11:00 | 14.14764 | 121.01274 | 11487 ft | 300 kts | 292° |
| 2026-04-30 11:00 | 14.15515 | 120.99254 | 11300 ft | 302 kts | 291° |
| 2026-04-30 11:01 | 14.16264 | 120.97241 | 11110 ft | 299 kts | 291° |
| 2026-04-30 11:01 | 14.17206 | 120.95364 | 10919 ft | 292 kts | 308° |
| 2026-04-30 11:01 | 14.18591 | 120.93884 | 10725 ft | 284 kts | 325° |
| 2026-04-30 11:01 | 14.20238 | 120.92837 | 10529 ft | 273 kts | 332° |
| 2026-04-30 11:02 | 14.21862 | 120.91882 | 10340 ft | 265 kts | 332° |
| 2026-04-30 11:02 | 14.23436 | 120.90950 | 10156 ft | 258 kts | 332° |
| 2026-04-30 11:02 | 14.24983 | 120.90016 | 9880 ft | 258 kts | 327° |
| 2026-04-30 11:02 | 14.26155 | 120.88643 | 9510 ft | 260 kts | 292° |
| 2026-04-30 11:03 | 14.26378 | 120.86813 | 9104 ft | 261 kts | 256° |
| 2026-04-30 11:03 | 14.25632 | 120.85148 | 8745 ft | 258 kts | 236° |
| 2026-04-30 11:03 | 14.24699 | 120.83566 | 8414 ft | 256 kts | 239° |
| 2026-04-30 11:04 | 14.22958 | 120.80385 | 7790 ft | 253 kts | 240° |
| 2026-04-30 11:04 | 14.22112 | 120.78798 | 7472 ft | 252 kts | 246° |
| 2026-04-30 11:04 | 14.21801 | 120.77057 | 7146 ft | 249 kts | 280° |
| 2026-04-30 11:04 | 14.22462 | 120.75451 | 6786 ft | 244 kts | 316° |
| 2026-04-30 11:05 | 14.23788 | 120.74442 | 6498 ft | 237 kts | 333° |
| 2026-04-30 11:05 | 14.25221 | 120.73604 | 6223 ft | 235 kts | 333° |
| 2026-04-30 11:05 | 14.26640 | 120.72779 | 5942 ft | 233 kts | 333° |
| 2026-04-30 11:05 | 14.28049 | 120.71956 | 5639 ft | 232 kts | 333° |
| 2026-04-30 11:06 | 14.29453 | 120.71133 | 5349 ft | 232 kts | 333° |
| 2026-04-30 11:06 | 14.30913 | 120.70493 | 5059 ft | 226 kts | 354° |
| 2026-04-30 11:06 | 14.32463 | 120.70583 | 4655 ft | 225 kts | 22° |
| 2026-04-30 11:06 | 14.33741 | 120.71405 | 4398 ft | 219 kts | 49° |
| 2026-04-30 11:07 | 14.34602 | 120.72705 | 3978 ft | 223 kts | 61° |
| 2026-04-30 11:07 | 14.35355 | 120.74084 | 3747 ft | 219 kts | 61° |
| 2026-04-30 11:07 | 14.36104 | 120.75442 | 3482 ft | 217 kts | 61° |
| 2026-04-30 11:07 | 14.36854 | 120.76788 | 3257 ft | 214 kts | 62° |
| 2026-04-30 11:08 | 14.37571 | 120.78072 | 3175 ft | 200 kts | 62° |
| 2026-04-30 11:08 | 14.38239 | 120.79270 | 3096 ft | 186 kts | 62° |
| 2026-04-30 11:08 | 14.38875 | 120.80412 | 3040 ft | 184 kts | 62° |
| 2026-04-30 11:08 | 14.39515 | 120.81561 | 3033 ft | 184 kts | 62° |
| 2026-04-30 11:09 | 14.40154 | 120.82709 | 3031 ft | 185 kts | 62° |
| 2026-04-30 11:09 | 14.40795 | 120.83859 | 3030 ft | 185 kts | 62° |
| 2026-04-30 11:09 | 14.41438 | 120.85014 | 3008 ft | 184 kts | 62° |
| 2026-04-30 11:09 | 14.42055 | 120.86120 | 2863 ft | 173 kts | 62° |
| 2026-04-30 11:10 | 14.42640 | 120.87169 | 2665 ft | 165 kts | 63° |
| 2026-04-30 11:10 | 14.43201 | 120.88178 | 2472 ft | 159 kts | 63° |
| 2026-04-30 11:10 | 14.43751 | 120.89165 | 2271 ft | 159 kts | 63° |
| 2026-04-30 11:10 | 14.44313 | 120.90177 | 2064 ft | 165 kts | 64° |
| 2026-04-30 11:11 | 14.44879 | 120.91192 | 1859 ft | 162 kts | 64° |
| 2026-04-30 11:11 | 14.45437 | 120.92195 | 1657 ft | 161 kts | 63° |
| 2026-04-30 11:11 | 14.45986 | 120.93180 | 1451 ft | 151 kts | 63° |
| 2026-04-30 11:11 | 14.46489 | 120.94083 | 1302 ft | 144 kts | 65° |
| 2026-04-30 11:12 | 14.46991 | 120.94987 | 1113 ft | 146 kts | 65° |
| 2026-04-30 11:12 | 14.47493 | 120.95890 | 947 ft | 143 kts | 64° |
| 2026-04-30 11:12 | 14.47985 | 120.96775 | 799 ft | 143 kts | 63° |
| 2026-04-30 11:12 | 14.48480 | 120.97666 | 603 ft | 146 kts | 64° |
| 2026-04-30 11:13 | 14.48990 | 120.98583 | 405 ft | 145 kts | 63° |
| 2026-04-30 11:13 | 14.49488 | 120.99478 | 228 ft | 146 kts | 64° |
| 2026-04-30 11:13 | 14.49993 | 121.00387 | 70 ft | 146 kts | 64° |
| 2026-04-30 11:13 | 14.50425 | 121.01159 | 72 ft | 108 kts | 53° |
| 2026-04-30 11:14 | 14.50658 | 121.01581 | 67 ft | 41 kts | 60° |
| 2026-04-30 11:14 | 14.50839 | 121.01774 | 67 ft | 28 kts | 37° |
| 2026-04-30 11:14 | 14.50891 | 121.01725 | 65 ft | 13 kts | 247° |
| 2026-04-30 11:14 | 14.50905 | 121.01647 | 67 ft | 12 kts | 323° |
| 2026-04-30 11:15 | 14.50970 | 121.01588 | 69 ft | 13 kts | 316° |
| 2026-04-30 11:15 | 14.51016 | 121.01536 | 67 ft | 6 kts | 294° |
| 2026-04-30 11:15 | 14.51002 | 121.01498 | 66 ft | 6 kts | 244° |
| 2026-04-30 11:15 | 14.50990 | 121.01459 | 68 ft | 5 kts | 254° |
| 2026-04-30 11:16 | 14.50987 | 121.01448 | 69 ft | 0 kts | 254° |